Time;durP1;ratioP1;P1;durP2;ratioP2;P2;SDS_P1;SDS_P2;PMS_P1;PMS_P2;Temp;Humidity;BMP_temperature;BMP_pressure;BME280_temperature;BME280_humidity;BME280_pressure;Samples;Min_cycle;Max_cycle;Signal;HPM_P1;HPM_P2
2021/08/28 00:00:27;;;;;;;10.27;5.68;;;13.80;99.90;;;;;;5093109;28;20027;-54
2021/08/28 00:02:53;;;;;;;8.80;6.32;;;13.90;99.90;;;;;;5092102;28;20092;-55
2021/08/28 00:05:18;;;;;;;10.70;5.40;;;13.80;99.90;;;;;;5092549;28;20040;-58
2021/08/28 00:07:44;;;;;;;8.75;5.43;;;13.80;99.90;;;;;;5093086;28;20046;-57
2021/08/28 00:10:10;;;;;;;9.63;5.70;;;13.70;99.90;;;;;;5075104;28;20035;-58
2021/08/28 00:12:36;;;;;;;9.48;5.35;;;13.60;99.90;;;;;;5093679;28;20391;-57
2021/08/28 00:15:03;;;;;;;6.47;4.57;;;13.50;99.90;;;;;;5092729;28;20028;-57
2021/08/28 00:17:33;;;;;;;9.70;5.18;;;13.60;99.90;;;;;;5095841;28;20035;-57
2021/08/28 00:20:04;;;;;;;8.60;5.60;;;13.50;99.90;;;;;;5096996;28;20046;-56
2021/08/28 00:22:29;;;;;;;7.55;5.22;;;13.60;99.90;;;;;;5096138;28;20085;-57
2021/08/28 00:24:55;;;;;;;6.93;5.32;;;13.70;99.90;;;;;;5096761;28;20036;-58
2021/08/28 00:27:21;;;;;;;8.60;5.60;;;13.70;99.90;;;;;;5096056;28;20031;-57
2021/08/28 00:29:46;;;;;;;6.88;5.25;;;13.60;99.90;;;;;;5076730;28;20044;-55
2021/08/28 00:32:12;;;;;;;8.73;4.95;;;13.70;99.90;;;;;;5094861;28;20040;-58
2021/08/28 00:34:38;;;;;;;5.97;5.05;;;13.70;99.90;;;;;;5095324;28;20036;-56
2021/08/28 00:37:03;;;;;;;8.63;4.95;;;13.70;99.90;;;;;;5094546;28;20032;-56
2021/08/28 00:39:29;;;;;;;8.05;5.68;;;13.70;99.90;;;;;;5096035;28;20096;-54
2021/08/28 00:41:55;;;;;;;8.00;5.45;;;13.80;99.90;;;;;;5096266;28;20243;-58
2021/08/28 00:44:20;;;;;;;9.50;5.40;;;13.80;99.90;;;;;;5095771;28;20126;-59
2021/08/28 00:46:47;;;;;;;6.65;5.13;;;13.70;99.90;;;;;;5077627;28;20114;-58
2021/08/28 00:49:13;;;;;;;8.18;5.57;;;13.60;99.90;;;;;;5096234;28;20055;-58
2021/08/28 00:51:39;;;;;;;8.18;5.75;;;13.60;99.90;;;;;;5095075;28;20572;-56
2021/08/28 00:54:07;;;;;;;7.50;6.60;;;13.40;99.90;;;;;;5095020;28;20162;-54
2021/08/28 00:56:36;;;;;;;6.18;5.57;;;13.60;99.90;;;;;;5095587;28;20028;-57
2021/08/28 00:59:02;;;;;;;7.18;5.72;;;13.60;99.90;;;;;;5095469;28;20035;-56
2021/08/28 01:01:32;;;;;;;7.07;5.90;;;13.60;99.90;;;;;;5095820;28;20032;-55
2021/08/28 01:04:00;;;;;;;7.45;6.60;;;13.70;99.90;;;;;;5077799;28;20036;-57
2021/08/28 01:07:07;;;;;;;7.50;5.80;;;13.70;99.90;;;;;;5095751;28;20475;-57
2021/08/28 01:09:38;;;;;;;6.85;5.60;;;13.70;99.90;;;;;;5094236;28;20093;-55
2021/08/28 01:12:15;;;;;;;8.07;6.30;;;13.70;99.90;;;;;;5094970;28;20077;-53
2021/08/28 01:14:44;;;;;;;9.60;6.03;;;13.60;99.90;;;;;;5095999;28;20081;-56
2021/08/28 01:17:11;;;;;;;7.70;6.28;;;13.70;99.90;;;;;;5096952;28;20024;-58
2021/08/28 01:19:36;;;;;;;8.23;5.85;;;13.60;99.90;;;;;;5096681;28;20543;-58
2021/08/28 01:22:08;;;;;;;6.50;5.90;;;13.60;99.90;;;;;;5096076;28;20055;-58
2021/08/28 01:24:35;;;;;;;7.93;6.10;;;13.60;99.90;;;;;;5095536;28;20070;-55
2021/08/28 01:27:19;;;;;;;7.63;6.00;;;13.60;99.90;;;;;;5094498;28;20032;-58
2021/08/28 01:29:47;;;;;;;7.40;6.65;;;13.70;99.90;;;;;;5095583;28;20070;-56
2021/08/28 01:32:14;;;;;;;8.35;5.90;;;13.60;99.90;;;;;;5094939;28;20111;-56
2021/08/28 01:34:40;;;;;;;11.15;6.30;;;13.50;99.90;;;;;;5095205;28;20056;-57
2021/08/28 01:37:10;;;;;;;8.20;6.40;;;13.50;99.90;;;;;;5093630;28;20036;-58
2021/08/28 01:39:37;;;;;;;7.18;6.28;;;13.50;99.90;;;;;;5095302;28;20396;-57
2021/08/28 01:42:03;;;;;;;8.25;7.07;;;13.40;99.90;;;;;;5095007;28;20028;-55
2021/08/28 01:44:31;;;;;;;6.78;6.07;;;13.50;99.90;;;;;;5094694;28;20104;-57
2021/08/28 01:46:57;;;;;;;7.07;5.72;;;13.40;99.90;;;;;;5095100;28;20042;-57
2021/08/28 01:49:24;;;;;;;7.53;6.55;;;13.40;99.90;;;;;;5094727;28;20031;-55
2021/08/28 01:51:50;;;;;;;7.25;6.50;;;13.30;99.90;;;;;;5094538;28;20506;-56
2021/08/28 01:54:16;;;;;;;7.15;6.45;;;13.40;99.90;;;;;;5094532;28;20484;-55
2021/08/28 01:56:41;;;;;;;12.75;5.82;;;13.30;99.90;;;;;;5094867;28;20085;-56
2021/08/28 01:59:07;;;;;;;7.45;6.00;;;13.30;99.90;;;;;;5094942;28;20476;-55
2021/08/28 02:01:33;;;;;;;9.75;6.07;;;13.30;99.90;;;;;;5076263;28;20036;-55
2021/08/28 02:03:59;;;;;;;7.60;5.90;;;13.40;99.90;;;;;;5094196;28;20024;-57
2021/08/28 02:06:48;;;;;;;8.63;6.50;;;13.30;99.90;;;;;;5093926;28;20035;-57
2021/08/28 02:09:49;;;;;;;6.85;5.72;;;13.30;99.90;;;;;;5094567;28;20513;-54
2021/08/28 02:12:38;;;;;;;6.70;5.72;;;13.20;99.90;;;;;;5093495;28;20102;-57
2021/08/28 02:15:14;;;;;;;6.40;5.75;;;13.20;99.90;;;;;;5093127;28;20046;-56
2021/08/28 02:17:48;;;;;;;8.20;5.70;;;13.30;99.90;;;;;;5091504;28;20027;-54
2021/08/28 02:20:16;;;;;;;13.00;6.72;;;13.30;99.90;;;;;;5092323;28;20102;-56
2021/08/28 02:22:47;;;;;;;7.45;6.10;;;13.30;99.90;;;;;;5092597;28;20039;-56
2021/08/28 02:25:22;;;;;;;6.35;5.28;;;13.30;99.90;;;;;;5074397;28;20476;-57
2021/08/28 02:27:53;;;;;;;6.55;5.95;;;13.30;99.90;;;;;;5092385;28;20040;-51
2021/08/28 02:30:19;;;;;;;8.77;6.20;;;13.20;99.90;;;;;;5092251;28;20126;-55
2021/08/28 02:32:48;;;;;;;6.30;5.70;;;13.10;99.90;;;;;;5092719;28;20124;-57
2021/08/28 02:35:15;;;;;;;7.10;6.18;;;13.10;99.90;;;;;;5092175;28;20387;-54
2021/08/28 02:37:42;;;;;;;8.05;5.85;;;13.20;99.90;;;;;;5092524;28;20089;-55
2021/08/28 02:40:10;;;;;;;7.18;5.70;;;13.20;99.90;;;;;;5094303;28;20058;-57
2021/08/28 02:42:39;;;;;;;8.75;6.57;;;13.30;99.90;;;;;;5094160;28;20030;-55
2021/08/28 02:45:06;;;;;;;7.97;6.60;;;13.30;99.90;;;;;;5093023;28;20451;-53
2021/08/28 02:47:33;;;;;;;8.23;6.75;;;13.30;99.90;;;;;;5075100;28;20028;-57
2021/08/28 02:50:00;;;;;;;7.43;6.63;;;13.30;99.90;;;;;;5094162;28;20053;-58
2021/08/28 02:52:28;;;;;;;7.60;6.90;;;13.20;99.90;;;;;;5093685;28;20063;-57
2021/08/28 02:54:56;;;;;;;8.27;7.47;;;13.20;99.90;;;;;;5092992;28;20035;-59
2021/08/28 02:57:24;;;;;;;8.40;7.20;;;13.10;99.90;;;;;;5093214;28;20028;-58
2021/08/28 02:59:50;;;;;;;8.13;7.32;;;13.20;99.90;;;;;;5093650;28;20032;-57
2021/08/28 03:02:17;;;;;;;8.73;7.85;;;13.10;99.90;;;;;;5093218;28;20081;-56
2021/08/28 03:04:44;;;;;;;8.45;7.63;;;13.10;99.90;;;;;;5094351;28;20059;-57
2021/08/28 03:07:11;;;;;;;8.98;7.75;;;13.10;99.90;;;;;;5095309;28;20032;-58
2021/08/28 03:09:37;;;;;;;7.70;7.00;;;13.20;99.90;;;;;;5095453;28;20028;-57
2021/08/28 03:12:04;;;;;;;9.32;7.10;;;13.20;99.90;;;;;;5093974;28;20506;-57
2021/08/28 03:14:30;;;;;;;8.63;7.43;;;13.20;99.90;;;;;;5093611;28;20368;-52
2021/08/28 03:16:58;;;;;;;8.30;7.03;;;13.20;99.90;;;;;;5093151;28;20090;-57
2021/08/28 03:19:27;;;;;;;7.63;6.82;;;13.10;99.90;;;;;;5093428;28;20222;-54
2021/08/28 03:21:53;;;;;;;8.30;6.90;;;13.10;99.90;;;;;;5075031;28;20499;-57
2021/08/28 03:24:23;;;;;;;7.72;6.20;;;13.20;99.90;;;;;;5074824;28;20032;-55
2021/08/28 03:26:55;;;;;;;8.52;7.28;;;13.20;99.90;;;;;;5093236;28;20036;-56
2021/08/28 03:29:22;;;;;;;7.53;6.75;;;13.30;99.90;;;;;;5093718;28;20052;-56
2021/08/28 03:31:51;;;;;;;7.88;7.05;;;13.20;99.90;;;;;;5075631;28;20490;-57
2021/08/28 03:34:17;;;;;;;11.52;6.70;;;13.20;99.90;;;;;;5093431;28;20024;-56
2021/08/28 03:36:43;;;;;;;7.70;6.90;;;13.30;99.90;;;;;;5093183;28;20124;-56
2021/08/28 03:39:09;;;;;;;9.45;6.90;;;13.30;99.90;;;;;;5075063;28;20028;-55
2021/08/28 03:41:37;;;;;;;9.27;7.10;;;13.30;99.90;;;;;;5093434;28;20043;-54
2021/08/28 03:44:02;;;;;;;8.10;7.30;;;13.30;99.90;;;;;;5092791;28;20485;-55
2021/08/28 03:46:31;;;;;;;8.68;7.63;;;13.30;99.90;;;;;;5092880;28;20035;-57
2021/08/28 03:48:57;;;;;;;8.57;7.72;;;13.20;99.90;;;;;;5093165;28;20138;-55
2021/08/28 03:51:23;;;;;;;8.40;7.57;;;13.20;99.90;;;;;;5077596;28;20031;-55
2021/08/28 03:53:48;;;;;;;7.82;7.03;;;13.30;99.90;;;;;;5097110;28;20606;-57
2021/08/28 03:56:14;;;;;;;8.45;7.68;;;13.20;99.90;;;;;;5096326;28;20031;-56
2021/08/28 03:58:39;;;;;;;9.25;8.35;;;13.10;99.90;;;;;;5061618;28;20028;-56
2021/08/28 04:01:05;;;;;;;7.95;7.25;;;13.20;99.90;;;;;;5078027;28;20483;-57
2021/08/28 04:03:30;;;;;;;7.68;6.97;;;13.10;99.90;;;;;;5078671;28;20033;-57
2021/08/28 04:05:56;;;;;;;11.05;8.60;;;13.20;99.90;;;;;;5078590;28;20040;-55
2021/08/28 04:08:22;;;;;;;9.60;7.50;;;13.20;99.90;;;;;;5079081;28;20036;-55
2021/08/28 04:10:47;;;;;;;10.63;7.82;;;13.30;99.90;;;;;;5097698;28;20077;-54
2021/08/28 04:13:13;;;;;;;9.40;7.90;;;13.30;99.90;;;;;;5096873;28;20036;-54
2021/08/28 04:15:39;;;;;;;11.43;8.02;;;13.40;99.90;;;;;;5096226;28;20081;-57
2021/08/28 04:18:04;;;;;;;11.88;8.35;;;13.30;99.90;;;;;;5097221;28;20058;-57
2021/08/28 04:20:30;;;;;;;9.82;8.75;;;13.20;99.90;;;;;;5096411;28;20102;-57
2021/08/28 04:22:55;;;;;;;15.18;9.65;;;13.20;99.90;;;;;;5097157;28;20494;-57
2021/08/28 04:25:23;;;;;;;10.27;9.18;;;13.10;99.90;;;;;;5096989;28;20479;-55
2021/08/28 04:27:48;;;;;;;11.30;10.10;;;13.20;99.90;;;;;;5096989;28;20105;-55
2021/08/28 04:30:14;;;;;;;11.93;8.98;;;13.20;99.90;;;;;;5096129;28;20487;-58
2021/08/28 04:32:39;;;;;;;10.90;9.80;;;13.20;99.90;;;;;;5095840;28;20056;-55
2021/08/28 04:35:05;;;;;;;12.25;10.50;;;13.20;99.90;;;;;;5096159;28;20081;-54
2021/08/28 04:37:31;;;;;;;13.95;10.95;;;13.10;99.90;;;;;;5095624;28;20122;-55
2021/08/28 04:39:56;;;;;;;12.65;11.30;;;13.10;99.90;;;;;;5095635;28;20084;-56
2021/08/28 04:42:22;;;;;;;12.23;11.10;;;13.20;99.90;;;;;;5077089;28;20048;-56
2021/08/28 04:44:48;;;;;;;13.13;11.82;;;13.20;99.90;;;;;;5095997;28;20032;-54
2021/08/28 04:47:13;;;;;;;13.23;11.55;;;13.10;99.90;;;;;;5095862;28;20032;-56
2021/08/28 04:49:39;;;;;;;13.52;12.25;;;13.20;99.90;;;;;;5095908;28;20036;-57
2021/08/28 04:52:06;;;;;;;13.65;12.20;;;13.10;99.90;;;;;;5077567;28;20036;-56
2021/08/28 04:54:32;;;;;;;13.50;11.77;;;13.20;99.90;;;;;;5078075;28;20039;-55
2021/08/28 04:56:58;;;;;;;12.20;11.15;;;13.20;99.90;;;;;;5095764;28;20032;-56
2021/08/28 04:59:23;;;;;;;16.55;11.15;;;13.20;99.90;;;;;;5095589;28;20043;-57
2021/08/28 05:01:49;;;;;;;13.50;10.82;;;13.20;99.90;;;;;;5097193;28;20048;-57
2021/08/28 05:04:14;;;;;;;12.15;9.45;;;13.20;99.90;;;;;;5098335;28;20515;-58
2021/08/28 05:06:40;;;;;;;10.20;9.05;;;13.30;99.90;;;;;;5097232;28;20026;-57
2021/08/28 05:09:06;;;;;;;8.30;6.95;;;13.30;99.90;;;;;;5095907;28;20040;-57
2021/08/28 05:11:31;;;;;;;7.50;5.57;;;13.40;99.90;;;;;;5096217;28;20392;-57
2021/08/28 05:13:57;;;;;;;5.28;4.40;;;13.40;99.90;;;;;;5096135;28;20035;-57
2021/08/28 05:16:22;;;;;;;5.85;4.97;;;13.30;99.90;;;;;;5095992;28;20122;-58
2021/08/28 05:18:48;;;;;;;4.50;4.10;;;13.40;99.90;;;;;;5078103;28;20028;-57
2021/08/28 05:21:13;;;;;;;4.97;4.47;;;13.40;99.90;;;;;;5095817;28;20040;-56
2021/08/28 05:23:40;;;;;;;5.78;4.82;;;13.40;99.90;;;;;;5095834;28;20032;-57
2021/08/28 05:26:06;;;;;;;4.82;4.32;;;13.20;99.90;;;;;;5077672;28;20028;-57
2021/08/28 05:28:31;;;;;;;5.47;4.80;;;13.40;99.90;;;;;;5096028;28;20122;-54
2021/08/28 05:30:57;;;;;;;6.20;4.53;;;13.40;99.90;;;;;;5095767;28;20032;-57
2021/08/28 05:33:23;;;;;;;7.43;5.90;;;13.30;99.90;;;;;;5095400;28;20467;-56
2021/08/28 05:35:48;;;;;;;8.35;6.20;;;13.40;99.90;;;;;;5075645;28;20390;-58
2021/08/28 05:38:14;;;;;;;8.00;6.80;;;13.50;99.90;;;;;;5094095;28;20048;-55
2021/08/28 05:40:40;;;;;;;8.43;7.63;;;13.30;99.90;;;;;;5076383;28;20035;-55
2021/08/28 05:43:05;;;;;;;9.68;8.68;;;13.30;99.90;;;;;;5094585;28;20036;-57
2021/08/28 05:45:31;;;;;;;10.27;9.27;;;13.30;99.90;;;;;;5094838;28;20028;-57
2021/08/28 05:47:56;;;;;;;12.38;8.73;;;13.40;99.90;;;;;;5094928;28;20504;-56
2021/08/28 05:50:22;;;;;;;12.38;11.10;;;13.60;99.90;;;;;;5076691;28;20475;-54
2021/08/28 05:52:47;;;;;;;12.77;11.55;;;13.60;99.90;;;;;;5094336;28;20024;-56
2021/08/28 05:55:14;;;;;;;15.68;14.07;;;13.70;99.90;;;;;;5094550;28;20040;-56
2021/08/28 05:57:41;;;;;;;17.25;15.57;;;13.80;99.90;;;;;;5094969;28;20024;-58
2021/08/28 06:00:07;;;;;;;19.17;17.23;;;13.70;99.90;;;;;;5096098;28;20091;-55
2021/08/28 06:02:36;;;;;;;20.75;18.65;;;13.70;99.90;;;;;;5095411;28;20074;-56
2021/08/28 06:05:04;;;;;;;19.65;17.73;;;13.70;99.90;;;;;;5095108;28;20118;-58
2021/08/28 06:07:30;;;;;;;20.73;18.33;;;13.80;99.90;;;;;;5076220;28;20046;-55
2021/08/28 06:09:55;;;;;;;24.70;19.95;;;13.80;99.90;;;;;;5094665;28;20036;-60
2021/08/28 06:12:21;;;;;;;27.52;20.40;;;13.70;99.90;;;;;;5094413;28;20044;-57
2021/08/28 06:14:46;;;;;;;22.55;20.15;;;13.70;99.90;;;;;;5093184;28;20032;-58
2021/08/28 06:17:12;;;;;;;22.83;20.42;;;13.70;99.90;;;;;;5094176;28;20547;-57
2021/08/28 06:19:37;;;;;;;23.73;21.17;;;13.80;99.90;;;;;;5094295;28;20031;-56
2021/08/28 06:22:03;;;;;;;27.00;22.33;;;13.60;99.90;;;;;;5094327;28;20063;-57
2021/08/28 06:24:28;;;;;;;25.77;23.08;;;13.60;99.90;;;;;;5075481;28;20039;-55
2021/08/28 06:26:54;;;;;;;25.40;22.13;;;13.50;99.90;;;;;;5094336;28;20394;-57
2021/08/28 06:29:20;;;;;;;25.98;23.27;;;13.60;99.90;;;;;;5094542;28;20040;-58
2021/08/28 06:31:45;;;;;;;28.70;22.85;;;13.60;99.90;;;;;;5094495;28;20059;-58
2021/08/28 06:34:11;;;;;;;26.05;22.60;;;13.70;99.90;;;;;;5093904;28;20452;-56
2021/08/28 06:36:36;;;;;;;26.77;22.05;;;13.60;99.90;;;;;;5094047;28;20395;-57
2021/08/28 06:39:02;;;;;;;26.50;22.95;;;13.70;99.90;;;;;;5094709;28;20040;-54
2021/08/28 06:41:28;;;;;;;25.95;23.25;;;13.70;99.90;;;;;;5094141;28;20451;-57
2021/08/28 06:43:53;;;;;;;27.10;22.75;;;13.70;99.90;;;;;;5076022;28;20031;-60
2021/08/28 06:46:19;;;;;;;27.40;23.92;;;13.60;99.90;;;;;;5094303;28;20058;-58
2021/08/28 06:48:44;;;;;;;28.67;22.65;;;13.70;99.90;;;;;;5093896;28;20108;-57
2021/08/28 06:51:10;;;;;;;26.55;23.00;;;13.80;99.90;;;;;;5093627;28;20044;-57
2021/08/28 06:53:36;;;;;;;25.63;22.48;;;13.80;99.90;;;;;;5093572;28;20032;-56
2021/08/28 06:56:01;;;;;;;23.55;20.63;;;13.90;99.90;;;;;;5095249;28;20041;-59
2021/08/28 06:58:27;;;;;;;26.10;23.35;;;14.00;99.90;;;;;;5095913;28;20136;-58
2021/08/28 07:00:54;;;;;;;26.02;21.27;;;13.90;99.90;;;;;;5095423;28;20036;-55
2021/08/28 07:03:19;;;;;;;28.60;21.25;;;13.90;99.90;;;;;;5094653;28;20505;-57
2021/08/28 07:05:45;;;;;;;26.15;22.10;;;13.90;99.90;;;;;;5093631;28;20028;-57
2021/08/28 07:08:10;;;;;;;23.60;20.17;;;14.00;99.90;;;;;;5093765;28;20028;-55
2021/08/28 07:10:36;;;;;;;23.25;20.52;;;14.00;99.90;;;;;;5093958;28;20097;-57
2021/08/28 07:13:02;;;;;;;27.02;20.85;;;14.00;99.90;;;;;;5094231;28;20040;-57
2021/08/28 07:15:27;;;;;;;21.90;19.67;;;14.10;99.90;;;;;;5093818;28;20024;-59
2021/08/28 07:17:53;;;;;;;24.63;20.63;;;14.20;99.90;;;;;;5094557;28;20123;-57
2021/08/28 07:20:18;;;;;;;24.95;20.17;;;14.10;99.90;;;;;;5093246;28;20031;-58
2021/08/28 07:22:44;;;;;;;23.48;19.85;;;14.20;99.90;;;;;;5073693;28;20368;-58
2021/08/28 07:25:10;;;;;;;23.58;19.75;;;14.30;99.90;;;;;;5092779;28;20028;-56
2021/08/28 07:27:37;;;;;;;21.75;19.25;;;14.30;99.90;;;;;;5097394;28;20047;-55
2021/08/28 07:30:03;;;;;;;21.35;17.60;;;14.40;99.90;;;;;;5097243;28;20502;-55
2021/08/28 07:32:29;;;;;;;20.98;16.38;;;14.40;99.90;;;;;;5079536;28;20085;-57
2021/08/28 07:34:55;;;;;;;20.13;16.02;;;14.40;99.90;;;;;;5096172;28;20506;-57
2021/08/28 07:37:24;;;;;;;18.52;16.45;;;14.60;99.90;;;;;;5078025;28;20039;-55
2021/08/28 07:39:50;;;;;;;23.98;17.77;;;14.60;99.90;;;;;;5077970;28;20032;-55
2021/08/28 07:42:16;;;;;;;22.45;18.08;;;14.50;99.90;;;;;;5078141;28;20166;-58
2021/08/28 07:44:41;;;;;;;25.13;18.50;;;14.50;99.90;;;;;;5096024;28;20379;-57
2021/08/28 07:47:07;;;;;;;21.95;18.23;;;14.40;99.90;;;;;;5095626;28;20394;-57
2021/08/28 07:49:33;;;;;;;22.58;18.60;;;14.30;99.90;;;;;;5096047;28;20036;-56
2021/08/28 07:51:58;;;;;;;21.98;19.50;;;14.20;99.90;;;;;;5096118;28;20043;-58
2021/08/28 07:54:24;;;;;;;26.05;20.05;;;14.10;99.90;;;;;;5095337;28;20028;-54
2021/08/28 07:56:49;;;;;;;22.38;19.92;;;14.10;99.90;;;;;;5095541;28;20040;-55
2021/08/28 07:59:15;;;;;;;22.70;18.83;;;14.10;99.90;;;;;;5095917;28;20081;-57
2021/08/28 08:01:41;;;;;;;24.27;17.83;;;14.20;99.90;;;;;;5095860;28;20495;-56
2021/08/28 08:04:06;;;;;;;18.65;15.40;;;14.20;99.90;;;;;;5095754;28;20103;-57
2021/08/28 08:06:32;;;;;;;18.85;16.27;;;14.10;99.90;;;;;;5095483;28;20372;-57
2021/08/28 08:08:58;;;;;;;19.60;15.68;;;14.10;99.90;;;;;;5077427;28;20488;-56
2021/08/28 08:11:23;;;;;;;17.52;15.60;;;14.10;99.90;;;;;;5077811;28;20059;-55
2021/08/28 08:13:49;;;;;;;21.90;15.35;;;14.10;99.90;;;;;;5096121;28;20035;-59
2021/08/28 08:16:14;;;;;;;19.25;15.50;;;14.10;99.90;;;;;;5098191;28;20038;-55
2021/08/28 08:18:40;;;;;;;17.33;15.50;;;14.20;99.90;;;;;;5079894;28;20388;-54
2021/08/28 08:21:06;;;;;;;16.67;14.98;;;14.30;99.90;;;;;;5078426;28;20117;-58
2021/08/28 08:23:32;;;;;;;21.83;16.60;;;14.10;99.90;;;;;;5095846;28;20047;-58
2021/08/28 08:25:57;;;;;;;16.50;14.80;;;14.20;99.90;;;;;;5077233;28;20109;-57
2021/08/28 08:28:23;;;;;;;17.70;15.45;;;14.20;99.90;;;;;;5095596;28;20413;-56
2021/08/28 08:30:49;;;;;;;18.73;15.40;;;14.20;99.90;;;;;;5078356;28;20042;-57
2021/08/28 08:33:14;;;;;;;16.88;15.00;;;14.10;99.90;;;;;;5096146;28;20028;-56
2021/08/28 08:35:40;;;;;;;18.83;15.30;;;14.20;99.90;;;;;;5094925;28;20028;-57
2021/08/28 08:38:07;;;;;;;17.60;15.20;;;14.30;99.90;;;;;;5094973;28;20035;-57
2021/08/28 08:40:33;;;;;;;18.15;16.25;;;14.30;99.90;;;;;;5095352;28;20059;-58
2021/08/28 08:43:01;;;;;;;19.10;15.63;;;14.30;99.90;;;;;;5095336;28;20062;-58
2021/08/28 08:45:28;;;;;;;20.50;17.45;;;14.20;99.90;;;;;;5095313;28;20028;-58
2021/08/28 08:47:55;;;;;;;21.77;17.35;;;14.20;99.90;;;;;;5095507;28;20036;-57
2021/08/28 08:50:23;;;;;;;19.65;17.02;;;14.30;99.90;;;;;;5096718;28;20081;-57
2021/08/28 08:52:58;;;;;;;21.02;17.90;;;14.30;99.90;;;;;;5097785;28;20031;-57
2021/08/28 08:55:24;;;;;;;19.38;17.13;;;14.20;99.90;;;;;;5097471;28;20395;-58
2021/08/28 08:57:51;;;;;;;20.35;17.83;;;14.10;99.90;;;;;;5096710;28;20032;-56
2021/08/28 09:00:17;;;;;;;21.85;17.38;;;14.20;99.90;;;;;;5096988;28;20058;-57
2021/08/28 09:02:42;;;;;;;19.58;17.08;;;14.30;99.90;;;;;;5096282;28;20031;-56
2021/08/28 09:05:08;;;;;;;22.58;17.20;;;14.50;99.90;;;;;;5096597;28;20043;-58
2021/08/28 09:07:34;;;;;;;19.88;17.45;;;14.50;99.90;;;;;;5095764;28;20028;-57
2021/08/28 09:10:00;;;;;;;18.58;16.45;;;14.50;99.90;;;;;;5096227;28;20445;-54
2021/08/28 09:12:37;;;;;;;20.13;17.50;;;14.70;99.90;;;;;;5096019;28;20089;-56
2021/08/28 09:15:04;;;;;;;20.35;16.55;;;14.80;99.90;;;;;;5095916;28;20387;-56
2021/08/28 09:17:30;;;;;;;23.02;17.67;;;15.00;99.90;;;;;;5095523;28;20025;-56
2021/08/28 09:19:56;;;;;;;19.60;17.08;;;15.00;99.90;;;;;;5095873;28;20080;-56
2021/08/28 09:22:28;;;;;;;18.42;16.25;;;15.00;99.90;;;;;;5095953;28;20028;-56
2021/08/28 09:25:03;;;;;;;23.13;17.10;;;15.20;99.90;;;;;;5096714;28;20032;-57
2021/08/28 09:27:39;;;;;;;19.58;16.65;;;15.30;99.90;;;;;;5096914;28;20118;-57
2021/08/28 09:30:16;;;;;;;25.40;18.23;;;15.50;99.90;;;;;;5095564;28;20040;-55
2021/08/28 09:32:49;;;;;;;20.05;16.85;;;15.60;99.90;;;;;;5096304;28;20024;-57
2021/08/28 09:35:15;;;;;;;19.35;16.58;;;15.60;99.90;;;;;;5095339;28;20126;-55
2021/08/28 09:37:42;;;;;;;21.88;16.75;;;15.60;99.90;;;;;;5096361;28;20066;-56
2021/08/28 09:40:09;;;;;;;20.85;15.82;;;15.50;99.90;;;;;;5077784;28;20028;-57
2021/08/28 09:42:37;;;;;;;21.90;17.38;;;15.50;99.90;;;;;;5095005;28;20023;-58
2021/08/28 09:45:09;;;;;;;18.08;14.25;;;15.60;99.90;;;;;;5077431;28;20035;-57
2021/08/28 09:47:35;;;;;;;14.93;13.23;;;15.60;99.90;;;;;;5094591;28;20032;-55
2021/08/28 09:50:00;;;;;;;15.85;12.98;;;15.70;99.90;;;;;;5094900;28;20373;-55
2021/08/28 09:52:27;;;;;;;16.10;14.40;;;15.60;99.90;;;;;;5077227;28;20093;-56
2021/08/28 09:54:54;;;;;;;15.60;13.52;;;15.50;99.90;;;;;;5095251;28;20028;-57
2021/08/28 09:57:27;;;;;;;21.30;14.93;;;15.60;99.90;;;;;;5095183;28;20115;-58
2021/08/28 09:59:57;;;;;;;17.40;13.95;;;15.60;99.90;;;;;;5095300;28;20073;-57
2021/08/28 10:02:22;;;;;;;14.35;12.80;;;15.60;99.90;;;;;;5095130;28;20039;-58
2021/08/28 10:04:48;;;;;;;13.90;11.73;;;15.50;99.90;;;;;;5077144;28;20032;-56
2021/08/28 10:07:23;;;;;;;10.85;9.63;;;15.50;99.90;;;;;;5094919;28;20032;-58
2021/08/28 10:09:56;;;;;;;12.35;10.13;;;15.60;99.20;;;;;;5094944;28;20040;-56
2021/08/28 10:12:22;;;;;;;10.93;9.68;;;15.50;99.50;;;;;;5095471;28;20548;-57
2021/08/28 10:14:50;;;;;;;9.95;8.68;;;15.70;99.50;;;;;;5076844;28;20131;-58
2021/08/28 10:17:18;;;;;;;9.77;7.78;;;15.90;99.20;;;;;;5094425;28;20028;-59
2021/08/28 10:19:47;;;;;;;6.85;6.05;;;16.00;98.50;;;;;;5094713;28;20028;-61
2021/08/28 10:22:14;;;;;;;6.10;5.15;;;16.00;98.40;;;;;;5076587;28;20056;-58
2021/08/28 10:24:43;;;;;;;6.75;5.30;;;15.90;98.40;;;;;;5094632;28;20126;-56
2021/08/28 10:27:09;;;;;;;6.10;5.53;;;16.00;98.30;;;;;;5076272;28;20498;-56
2021/08/28 10:29:36;;;;;;;6.43;5.82;;;16.20;98.40;;;;;;5095359;28;20036;-58
2021/08/28 10:32:03;;;;;;;6.00;5.35;;;16.30;98.50;;;;;;5094177;28;20032;-57
2021/08/28 10:34:29;;;;;;;8.90;6.75;;;16.60;97.70;;;;;;5094220;28;20032;-58
2021/08/28 10:36:55;;;;;;;5.50;4.68;;;16.80;97.50;;;;;;5093521;28;20127;-58
2021/08/28 10:39:21;;;;;;;6.95;5.30;;;16.70;97.20;;;;;;5094765;28;20055;-58
2021/08/28 10:41:47;;;;;;;5.90;5.30;;;16.70;97.30;;;;;;5094049;28;20063;-58
2021/08/28 10:44:12;;;;;;;6.03;5.43;;;16.80;96.90;;;;;;5094238;28;20097;-56
2021/08/28 10:46:42;;;;;;;5.47;4.97;;;16.80;96.30;;;;;;5095725;28;20028;-58
2021/08/28 10:49:10;;;;;;;6.05;5.20;;;16.90;96.90;;;;;;5077684;28;20031;-57
2021/08/28 10:51:42;;;;;;;6.50;5.20;;;17.00;96.90;;;;;;5094000;28;20020;-57
2021/08/28 10:54:10;;;;;;;6.80;5.60;;;17.20;96.50;;;;;;5076714;28;20043;-56
2021/08/28 10:56:57;;;;;;;6.38;5.78;;;17.30;96.10;;;;;;5093690;28;20036;-56
2021/08/28 10:59:29;;;;;;;6.25;5.65;;;17.60;95.30;;;;;;5093140;28;20024;-58
2021/08/28 11:02:11;;;;;;;6.03;5.43;;;17.80;95.20;;;;;;5075458;28;20051;-56
2021/08/28 11:04:45;;;;;;;6.28;5.68;;;17.60;94.80;;;;;;5093618;28;20123;-57
2021/08/28 11:07:27;;;;;;;5.18;4.68;;;17.70;95.10;;;;;;5093898;28;20032;-57
2021/08/28 11:10:14;;;;;;;5.75;5.18;;;17.70;94.50;;;;;;5094611;28;20522;-58
2021/08/28 11:12:48;;;;;;;6.38;5.07;;;17.60;94.30;;;;;;5076667;28;20036;-51
2021/08/28 11:15:29;;;;;;;6.25;5.57;;;17.70;94.70;;;;;;5095549;28;20028;-59
2021/08/28 11:18:01;;;;;;;6.57;5.65;;;17.80;94.40;;;;;;5097160;28;20055;-56
2021/08/28 11:20:40;;;;;;;5.88;4.43;;;17.90;94.20;;;;;;5092452;28;20090;-60
2021/08/28 11:23:10;;;;;;;5.85;4.45;;;17.80;94.10;;;;;;5087440;28;20028;-58
2021/08/28 11:25:38;;;;;;;4.15;3.75;;;17.70;93.50;;;;;;5080275;28;20522;-58
2021/08/28 11:28:05;;;;;;;5.47;3.90;;;17.60;93.60;;;;;;5089096;28;20040;-55
2021/08/28 11:30:45;;;;;;;4.22;3.72;;;17.40;93.60;;;;;;5090597;28;20038;-58
2021/08/28 11:33:24;;;;;;;3.97;3.30;;;17.40;93.60;;;;;;5094299;28;20047;-58
2021/08/28 11:35:58;;;;;;;4.20;3.65;;;17.40;93.80;;;;;;5093877;28;20032;-59
2021/08/28 11:38:38;;;;;;;3.60;3.30;;;17.80;93.50;;;;;;5081162;28;20547;-58
2021/08/28 11:41:12;;;;;;;3.40;3.10;;;18.20;93.10;;;;;;5088832;28;20039;-58
2021/08/28 11:43:40;;;;;;;3.95;3.65;;;18.00;92.30;;;;;;5072103;28;20066;-58
2021/08/28 11:46:13;;;;;;;5.25;4.00;;;17.60;93.70;;;;;;5072596;28;20512;-58
2021/08/28 11:48:42;;;;;;;5.15;4.25;;;17.50;94.10;;;;;;5073117;28;20036;-57
2021/08/28 11:51:14;;;;;;;4.47;4.07;;;17.30;93.90;;;;;;5073628;28;20089;-58
2021/08/28 11:53:41;;;;;;;7.22;3.97;;;17.40;94.20;;;;;;5073878;28;20033;-56
2021/08/28 11:56:17;;;;;;;5.25;4.00;;;17.70;94.20;;;;;;5091354;28;20052;-56
2021/08/28 11:58:49;;;;;;;5.03;4.13;;;17.90;93.80;;;;;;5093236;28;20087;-57
2021/08/28 12:01:36;;;;;;;4.72;3.80;;;18.10;93.70;;;;;;5093383;28;20479;-58
2021/08/28 12:04:05;;;;;;;4.45;4.05;;;18.20;93.00;;;;;;5093186;28;20040;-56
2021/08/28 12:06:33;;;;;;;3.85;3.50;;;18.40;92.70;;;;;;5092236;28;20486;-56
2021/08/28 12:08:59;;;;;;;3.83;3.42;;;18.60;92.40;;;;;;5092783;28;20128;-58
2021/08/28 12:11:26;;;;;;;5.65;3.63;;;18.50;91.60;;;;;;5094210;28;20066;-58
2021/08/28 12:13:57;;;;;;;5.85;3.53;;;18.40;92.20;;;;;;5097275;28;20193;-58
2021/08/28 12:16:34;;;;;;;4.65;3.75;;;18.00;92.40;;;;;;5111725;28;20028;-58
2021/08/28 12:19:03;;;;;;;3.45;3.10;;;18.00;92.50;;;;;;5097088;28;20028;-59
2021/08/28 12:21:46;;;;;;;4.60;3.40;;;18.10;92.00;;;;;;5096960;28;20032;-55
2021/08/28 12:24:20;;;;;;;3.92;3.30;;;18.30;91.90;;;;;;5095902;28;20035;-58
2021/08/28 12:26:48;;;;;;;3.72;3.22;;;18.40;91.50;;;;;;5096469;28;20024;-56
2021/08/28 12:29:21;;;;;;;3.30;2.97;;;18.60;91.40;;;;;;5077192;28;20039;-58
2021/08/28 12:31:59;;;;;;;3.40;3.10;;;19.00;90.80;;;;;;5095943;28;20086;-57
2021/08/28 12:34:29;;;;;;;3.65;3.35;;;19.10;90.10;;;;;;5095935;28;20487;-58
2021/08/28 12:36:56;;;;;;;3.05;2.72;;;19.20;90.00;;;;;;5095707;28;20089;-53
2021/08/28 12:39:22;;;;;;;4.18;3.20;;;19.30;90.20;;;;;;5097096;28;20032;-55
2021/08/28 12:41:48;;;;;;;3.25;2.92;;;19.10;89.50;;;;;;5096496;28;20039;-55